Time;durP1;ratioP1;P1;durP2;ratioP2;P2;SDS_P1;SDS_P2;PMS_P1;PMS_P2;Temp;Humidity;BMP_temperature;BMP_pressure;BME280_temperature;BME280_humidity;BME280_pressure;Samples;Min_cycle;Max_cycle;Signal;HPM_P1;HPM_P2
2023/07/01 00:02:10;;;;;;;2.27;0.87;;;28.70;43.60;;;;;;4996440;28;87804;-48
2023/07/01 00:04:38;;;;;;;1.33;0.90;;;28.70;43.60;;;;;;4978794;28;87681;-48
2023/07/01 00:07:06;;;;;;;4.80;1.07;;;28.70;44.30;;;;;;4977553;28;89698;-48
2023/07/01 00:09:34;;;;;;;0.73;0.73;;;28.70;43.60;;;;;;4978206;28;89077;-48
2023/07/01 00:12:04;;;;;;;4.20;1.00;;;28.70;43.70;;;;;;4978528;28;87435;-48
2023/07/01 00:14:32;;;;;;;1.07;0.80;;;28.70;43.70;;;;;;4979054;28;88341;-48
2023/07/01 00:17:03;;;;;;;0.67;0.60;;;28.70;43.70;;;;;;4978387;28;88694;-49
2023/07/01 00:19:32;;;;;;;1.30;1.00;;;28.70;43.70;;;;;;4978091;28;88381;-48
2023/07/01 00:22:01;;;;;;;0.60;0.60;;;28.70;43.70;;;;;;4979547;28;89062;-48
2023/07/01 00:24:29;;;;;;;0.90;0.70;;;28.70;44.40;;;;;;4997226;28;87569;-48
2023/07/01 00:26:58;;;;;;;0.80;0.80;;;28.70;43.70;;;;;;4998406;28;88197;-48
2023/07/01 00:29:26;;;;;;;1.03;0.80;;;28.70;43.80;;;;;;4997773;28;89234;-48
2023/07/01 00:31:54;;;;;;;2.87;0.80;;;28.70;43.80;;;;;;4997820;28;88058;-48
2023/07/01 00:34:22;;;;;;;1.07;0.87;;;28.70;43.80;;;;;;4997646;28;88422;-48
2023/07/01 00:36:51;;;;;;;1.07;0.70;;;28.70;43.80;;;;;;4998129;28;88762;-48
2023/07/01 00:39:20;;;;;;;1.30;0.80;;;28.60;44.40;;;;;;4998144;28;88047;-48
2023/07/01 00:41:52;;;;;;;1.37;0.70;;;28.60;43.80;;;;;;4997684;28;88060;-48
2023/07/01 00:44:21;;;;;;;0.50;0.50;;;28.60;43.80;;;;;;4998323;28;88008;-48
2023/07/01 00:46:49;;;;;;;0.80;0.70;;;28.70;44.50;;;;;;4998036;28;89579;-48
2023/07/01 00:49:17;;;;;;;2.67;0.60;;;28.60;43.80;;;;;;4997626;28;88123;-48
2023/07/01 00:51:45;;;;;;;0.60;0.60;;;28.60;43.80;;;;;;4998047;28;87923;-48
2023/07/01 00:54:15;;;;;;;1.13;0.53;;;28.60;43.80;;;;;;4997799;28;87500;-48
2023/07/01 00:56:43;;;;;;;0.80;0.70;;;28.60;43.80;;;;;;4997764;28;90055;-48
2023/07/01 00:59:11;;;;;;;0.50;0.50;;;28.60;43.80;;;;;;4996840;28;89044;-48
2023/07/01 01:01:40;;;;;;;0.40;0.40;;;28.60;43.90;;;;;;4997683;28;87581;-48
2023/07/01 01:04:13;;;;;;;1.23;0.70;;;28.60;43.90;;;;;;4997568;28;87693;-48
2023/07/01 01:06:47;;;;;;;1.17;0.50;;;28.60;43.90;;;;;;4996803;28;88595;-48
2023/07/01 01:09:19;;;;;;;2.43;0.60;;;28.60;43.90;;;;;;4998226;28;87999;-48
2023/07/01 01:11:47;;;;;;;2.53;1.00;;;28.60;44.00;;;;;;4997505;28;87792;-48
2023/07/01 01:14:16;;;;;;;1.80;0.70;;;28.60;44.60;;;;;;4998056;28;87668;-48
2023/07/01 01:16:44;;;;;;;0.87;0.50;;;28.60;44.00;;;;;;4997552;28;88613;-48
2023/07/01 01:19:19;;;;;;;2.77;0.60;;;28.60;44.10;;;;;;4997125;28;89221;-48
2023/07/01 01:21:49;;;;;;;0.90;0.70;;;28.50;44.10;;;;;;4997332;28;88899;-48
2023/07/01 01:24:18;;;;;;;0.97;0.57;;;28.60;44.10;;;;;;4996936;28;89147;-48
2023/07/01 01:26:46;;;;;;;2.20;0.80;;;28.60;44.10;;;;;;4997573;28;89945;-48
2023/07/01 01:29:16;;;;;;;2.00;0.60;;;28.50;44.00;;;;;;4997361;28;89346;-48
2023/07/01 01:31:44;;;;;;;1.67;0.70;;;28.50;44.00;;;;;;4997297;28;87968;-48
2023/07/01 01:34:12;;;;;;;2.33;0.80;;;28.50;44.10;;;;;;4997680;28;87776;-48
2023/07/01 01:36:44;;;;;;;0.80;0.70;;;28.60;44.20;;;;;;4999307;28;88637;-48
2023/07/01 01:39:13;;;;;;;1.00;0.63;;;28.50;44.80;;;;;;5000911;28;87900;-48
2023/07/01 01:41:44;;;;;;;1.70;0.50;;;28.60;44.20;;;;;;5000455;28;87480;-48
2023/07/01 01:44:19;;;;;;;0.60;0.50;;;28.50;44.20;;;;;;5000164;28;87734;-49
2023/07/01 01:46:47;;;;;;;1.43;1.00;;;28.50;44.20;;;;;;4997739;28;88721;-48
2023/07/01 01:49:15;;;;;;;2.63;0.87;;;28.50;44.20;;;;;;5002773;28;87873;-48
2023/07/01 01:51:43;;;;;;;0.77;0.60;;;28.40;44.10;;;;;;5003684;28;89949;-48
2023/07/01 01:54:12;;;;;;;0.90;0.63;;;28.40;44.20;;;;;;5003809;28;87516;-48
2023/07/01 01:56:40;;;;;;;2.00;1.33;;;28.40;44.20;;;;;;5003691;28;89629;-48
2023/07/01 01:59:08;;;;;;;1.00;0.73;;;28.50;44.20;;;;;;5003489;28;88240;-48
2023/07/01 02:01:38;;;;;;;2.47;1.03;;;28.40;44.20;;;;;;5003271;28;88920;-48
2023/07/01 02:04:06;;;;;;;0.93;0.83;;;28.40;44.20;;;;;;5003513;28;87680;-48
2023/07/01 02:06:35;;;;;;;1.70;1.23;;;28.50;44.30;;;;;;5003380;28;89748;-48
2023/07/01 02:09:04;;;;;;;0.97;0.87;;;28.50;44.30;;;;;;5003302;28;88226;-48
2023/07/01 02:11:32;;;;;;;3.00;1.10;;;28.50;44.30;;;;;;5003463;28;87388;-48
2023/07/01 02:14:00;;;;;;;1.53;1.43;;;28.40;44.20;;;;;;5003084;28;87732;-48
2023/07/01 02:16:28;;;;;;;1.57;0.90;;;28.50;44.30;;;;;;5003101;28;87430;-48
2023/07/01 02:18:58;;;;;;;1.57;0.80;;;28.50;44.30;;;;;;5003318;28;88161;-48
2023/07/01 02:21:26;;;;;;;1.13;0.83;;;28.50;44.30;;;;;;5003210;28;87890;-48
2023/07/01 02:23:55;;;;;;;2.03;1.17;;;28.40;45.00;;;;;;5003105;28;87604;-48
2023/07/01 02:26:23;;;;;;;1.00;0.90;;;28.40;44.30;;;;;;5002992;28;88294;-48
2023/07/01 02:28:51;;;;;;;1.00;0.70;;;28.40;44.40;;;;;;5003008;28;88364;-48
2023/07/01 02:31:19;;;;;;;1.47;0.97;;;28.40;44.30;;;;;;5002950;28;87934;-48
2023/07/01 02:33:47;;;;;;;1.57;0.90;;;28.40;44.40;;;;;;5003175;28;87666;-48
2023/07/01 02:36:17;;;;;;;1.47;1.13;;;28.40;44.40;;;;;;5003100;28;88824;-48
2023/07/01 02:38:45;;;;;;;1.40;0.90;;;28.40;44.40;;;;;;5002457;28;90242;-48
2023/07/01 02:41:13;;;;;;;0.87;0.67;;;28.40;44.50;;;;;;5002779;28;87349;-48
2023/07/01 02:43:41;;;;;;;1.70;0.60;;;28.40;44.40;;;;;;5002604;28;87684;-48
2023/07/01 02:46:10;;;;;;;0.77;0.63;;;28.40;44.40;;;;;;5003131;28;88782;-48
2023/07/01 02:48:38;;;;;;;0.67;0.67;;;28.40;44.50;;;;;;5002938;28;88005;-48
2023/07/01 02:51:07;;;;;;;1.60;0.87;;;28.40;44.50;;;;;;5002870;28;87799;-48
2023/07/01 02:53:37;;;;;;;1.47;0.87;;;28.40;44.60;;;;;;5002825;28;87764;-48
2023/07/01 02:56:05;;;;;;;0.70;0.70;;;28.40;44.60;;;;;;5002959;28;87448;-48
2023/07/01 02:58:33;;;;;;;1.00;0.70;;;28.30;44.50;;;;;;5002319;28;88247;-48
2023/07/01 03:01:03;;;;;;;1.60;0.67;;;28.30;44.50;;;;;;5002641;28;87908;-48
2023/07/01 03:03:31;;;;;;;1.13;0.80;;;28.30;44.60;;;;;;5002152;28;87917;-48
2023/07/01 03:06:02;;;;;;;2.93;0.83;;;28.30;44.60;;;;;;5002571;28;88015;-48
2023/07/01 03:08:30;;;;;;;1.03;0.83;;;28.30;44.60;;;;;;5001773;28;88069;-48
2023/07/01 03:10:59;;;;;;;1.63;0.80;;;28.30;44.60;;;;;;5002567;28;87774;-48
2023/07/01 03:13:27;;;;;;;1.37;0.53;;;28.30;44.90;;;;;;5002525;28;87282;-48
2023/07/01 03:15:56;;;;;;;1.23;0.90;;;28.30;44.60;;;;;;5002460;28;88567;-48
2023/07/01 03:18:25;;;;;;;1.83;0.70;;;28.30;44.70;;;;;;5002348;28;88153;-48
2023/07/01 03:20:55;;;;;;;0.77;0.73;;;28.30;44.70;;;;;;5002258;28;87822;-48
2023/07/01 03:23:23;;;;;;;1.37;0.70;;;28.30;44.70;;;;;;5002310;28;87617;-48
2023/07/01 03:25:51;;;;;;;0.83;0.80;;;28.30;44.70;;;;;;5002057;28;88503;-48
2023/07/01 03:28:21;;;;;;;0.93;0.77;;;28.30;44.70;;;;;;5001603;28;89996;-48
2023/07/01 03:30:49;;;;;;;0.80;0.77;;;28.30;44.70;;;;;;5002298;28;88829;-48
2023/07/01 03:33:17;;;;;;;0.80;0.67;;;28.30;44.80;;;;;;5002213;28;87669;-48
2023/07/01 03:35:45;;;;;;;2.20;1.03;;;28.30;44.80;;;;;;5002349;28;87268;-48
2023/07/01 03:38:13;;;;;;;1.97;0.90;;;28.30;44.80;;;;;;5002168;28;88086;-48
2023/07/01 03:40:42;;;;;;;1.17;0.93;;;28.30;44.80;;;;;;5002108;28;87830;-48
2023/07/01 03:43:10;;;;;;;1.40;1.10;;;28.30;44.80;;;;;;5001889;28;87768;-48
2023/07/01 03:45:39;;;;;;;1.47;1.13;;;28.30;44.80;;;;;;5002085;28;89631;-48
2023/07/01 03:48:08;;;;;;;1.30;0.80;;;28.20;44.70;;;;;;5001946;28;87320;-48
2023/07/01 03:50:36;;;;;;;1.23;1.00;;;28.20;44.70;;;;;;5001899;28;88963;-48
2023/07/01 03:53:05;;;;;;;4.80;1.47;;;28.20;44.70;;;;;;5001462;28;87854;-48
2023/07/01 03:55:33;;;;;;;2.33;1.47;;;28.20;44.70;;;;;;5001720;28;88639;-48
2023/07/01 03:58:01;;;;;;;1.43;1.27;;;28.20;44.70;;;;;;5001255;28;89376;-48
2023/07/01 04:00:29;;;;;;;2.80;1.50;;;28.30;44.90;;;;;;5001299;28;88213;-48
2023/07/01 04:03:05;;;;;;;2.03;1.60;;;28.30;44.90;;;;;;5001975;28;87689;-48
2023/07/01 04:05:35;;;;;;;3.10;1.40;;;28.20;44.80;;;;;;5001496;28;88487;-48
2023/07/01 04:08:03;;;;;;;2.03;1.53;;;28.30;44.90;;;;;;5001062;28;88050;-48
2023/07/01 04:10:31;;;;;;;2.03;1.50;;;28.20;44.80;;;;;;5001699;28;87965;-48
2023/07/01 04:13:00;;;;;;;1.90;1.43;;;28.20;44.80;;;;;;5001196;28;87797;-48
2023/07/01 04:15:29;;;;;;;2.87;1.40;;;28.20;44.80;;;;;;5001352;28;88178;-48
2023/07/01 04:17:58;;;;;;;1.63;1.33;;;28.20;44.90;;;;;;5000909;28;90314;-48
2023/07/01 04:20:27;;;;;;;1.70;1.50;;;28.20;45.00;;;;;;4996959;28;88674;-48
2023/07/01 04:22:55;;;;;;;1.60;1.37;;;28.20;44.90;;;;;;4990132;28;87780;-48
2023/07/01 04:25:23;;;;;;;1.40;1.20;;;28.20;44.90;;;;;;4994683;28;88774;-48
2023/07/01 04:27:51;;;;;;;1.50;1.13;;;28.20;44.90;;;;;;4991808;28;88429;-48
2023/07/01 04:30:19;;;;;;;2.47;1.50;;;28.20;45.00;;;;;;4981260;28;87805;-48
2023/07/01 04:32:47;;;;;;;1.97;1.37;;;28.20;45.00;;;;;;4981513;28;87447;-48
2023/07/01 04:35:17;;;;;;;1.43;1.17;;;28.20;45.00;;;;;;4981418;28;88531;-48
2023/07/01 04:37:46;;;;;;;2.43;1.43;;;28.20;45.00;;;;;;4981091;28;88299;-48
2023/07/01 04:40:15;;;;;;;1.37;1.10;;;28.20;45.00;;;;;;4982594;28;87628;-49
2023/07/01 04:42:48;;;;;;;2.53;1.57;;;28.20;45.00;;;;;;4991046;28;87679;-48
2023/07/01 04:45:18;;;;;;;2.13;1.67;;;28.20;45.10;;;;;;4985968;28;89673;-48
2023/07/01 04:47:47;;;;;;;2.53;1.63;;;28.10;45.00;;;;;;4981004;28;88386;-48
2023/07/01 04:50:17;;;;;;;1.33;1.07;;;28.20;45.10;;;;;;4984107;28;88723;-48
2023/07/01 04:52:45;;;;;;;2.30;1.13;;;28.20;45.10;;;;;;4981143;28;87473;-49
2023/07/01 04:55:15;;;;;;;2.60;1.47;;;28.10;45.00;;;;;;4980683;28;89690;-48
2023/07/01 04:57:43;;;;;;;1.50;1.03;;;28.10;45.00;;;;;;4981248;28;89371;-48
2023/07/01 05:00:12;;;;;;;1.83;1.40;;;28.10;45.10;;;;;;4981190;28;87794;-48
2023/07/01 05:02:41;;;;;;;2.03;1.30;;;28.10;45.10;;;;;;4997178;28;87656;-48
2023/07/01 05:05:10;;;;;;;1.27;1.03;;;28.10;45.10;;;;;;5000415;28;88679;-48
2023/07/01 05:07:39;;;;;;;3.60;1.30;;;28.10;45.10;;;;;;4984387;28;89094;-48
2023/07/01 05:10:08;;;;;;;1.90;1.13;;;28.10;45.20;;;;;;4979560;28;89876;-49
2023/07/01 05:12:37;;;;;;;2.27;1.33;;;28.10;45.10;;;;;;4995148;28;87686;-48
2023/07/01 05:15:05;;;;;;;1.20;0.87;;;28.10;45.10;;;;;;5000051;28;88821;-48
2023/07/01 05:17:34;;;;;;;1.00;0.90;;;28.10;45.10;;;;;;4986437;28;88969;-48
2023/07/01 05:20:03;;;;;;;2.47;1.10;;;28.10;45.10;;;;;;4980434;28;88183;-48
2023/07/01 05:22:31;;;;;;;2.27;1.10;;;28.10;45.10;;;;;;4993428;28;87739;-48
2023/07/01 05:25:00;;;;;;;1.97;1.27;;;28.10;45.10;;;;;;5000186;28;88518;-48
2023/07/01 05:27:28;;;;;;;1.47;1.13;;;28.10;45.10;;;;;;4988476;28;88236;-48
2023/07/01 05:29:57;;;;;;;2.20;0.90;;;28.10;45.10;;;;;;4980545;28;88587;-48
2023/07/01 05:32:25;;;;;;;1.10;1.00;;;28.10;45.10;;;;;;4990441;28;89557;-48
2023/07/01 05:34:53;;;;;;;1.00;0.90;;;28.10;45.10;;;;;;5000192;28;88568;-48
2023/07/01 05:37:22;;;;;;;1.00;0.80;;;28.10;45.20;;;;;;4995949;28;88229;-48
2023/07/01 05:39:50;;;;;;;0.73;0.60;;;28.10;45.20;;;;;;5000117;28;87906;-48
2023/07/01 05:42:20;;;;;;;1.00;0.90;;;28.10;45.20;;;;;;4992289;28;87618;-48
2023/07/01 05:44:48;;;;;;;1.10;0.90;;;28.10;45.20;;;;;;4980057;28;88691;-48
2023/07/01 05:47:16;;;;;;;0.97;0.80;;;28.10;45.20;;;;;;4987285;28;87370;-48
2023/07/01 05:49:44;;;;;;;2.40;0.87;;;28.10;45.20;;;;;;5000330;28;87595;-48
2023/07/01 05:52:12;;;;;;;1.60;1.00;;;28.10;45.20;;;;;;4995249;28;87683;-48
2023/07/01 05:54:41;;;;;;;1.27;0.60;;;28.10;45.20;;;;;;5000105;28;87461;-48
2023/07/01 05:57:09;;;;;;;1.00;0.70;;;28.10;45.20;;;;;;4994898;28;88990;-48
2023/07/01 05:59:38;;;;;;;1.10;1.00;;;28.10;45.20;;;;;;4981214;28;88404;-48
2023/07/01 06:02:07;;;;;;;2.30;0.90;;;28.10;45.20;;;;;;4983450;28;87643;-48
2023/07/01 06:04:35;;;;;;;1.30;0.90;;;28.10;45.20;;;;;;4979904;28;88548;-48
2023/07/01 06:07:04;;;;;;;2.27;1.07;;;28.10;45.20;;;;;;4983764;28;88043;-48
2023/07/01 06:09:32;;;;;;;0.77;0.43;;;28.10;45.30;;;;;;4980231;28;87893;-48
2023/07/01 06:12:00;;;;;;;1.87;0.73;;;28.00;45.20;;;;;;4981677;28;87661;-48
2023/07/01 06:14:28;;;;;;;1.10;0.80;;;28.10;45.30;;;;;;4978749;28;89496;-48
2023/07/01 06:16:58;;;;;;;0.90;0.70;;;28.00;45.20;;;;;;4977026;28;88508;-48
2023/07/01 06:19:26;;;;;;;1.23;0.77;;;28.10;45.30;;;;;;4976984;28;87726;-48
2023/07/01 06:21:55;;;;;;;1.27;0.60;;;28.10;45.30;;;;;;4983754;28;88055;-48
2023/07/01 06:24:23;;;;;;;1.07;0.90;;;28.10;45.30;;;;;;4980516;28;88649;-48
2023/07/01 06:26:51;;;;;;;0.50;0.50;;;28.00;45.20;;;;;;4979949;28;88253;-48
2023/07/01 06:29:19;;;;;;;1.93;0.77;;;28.10;45.30;;;;;;4988579;28;89893;-48
2023/07/01 06:31:47;;;;;;;0.50;0.50;;;28.00;45.20;;;;;;4982249;28;87731;-48
2023/07/01 06:34:17;;;;;;;0.77;0.60;;;28.00;45.30;;;;;;4983789;28;89625;-48
2023/07/01 06:36:46;;;;;;;0.87;0.80;;;28.00;45.30;;;;;;4993393;28;88224;-48
2023/07/01 06:39:14;;;;;;;0.67;0.67;;;28.00;45.30;;;;;;4985809;28;88963;-48
2023/07/01 06:41:42;;;;;;;0.80;0.70;;;28.00;45.30;;;;;;4994707;28;87815;-48
2023/07/01 06:44:12;;;;;;;1.33;0.57;;;28.00;45.30;;;;;;4995566;28;88779;-48
2023/07/01 06:46:40;;;;;;;0.77;0.77;;;28.00;45.30;;;;;;4995093;28;89202;-48
2023/07/01 06:49:09;;;;;;;0.73;0.73;;;28.00;45.30;;;;;;4985885;28;88695;-48
2023/07/01 06:51:39;;;;;;;0.77;0.63;;;28.00;45.30;;;;;;4999096;28;88038;-48
2023/07/01 06:54:07;;;;;;;1.10;0.80;;;28.00;46.00;;;;;;4990770;28;88908;-48
2023/07/01 06:56:35;;;;;;;0.60;0.60;;;28.00;45.30;;;;;;4999817;28;87842;-49
2023/07/01 06:59:03;;;;;;;0.90;0.80;;;28.00;45.30;;;;;;4988062;28;88286;-48
2023/07/01 07:01:32;;;;;;;0.50;0.50;;;28.00;45.30;;;;;;4999827;28;87533;-49
2023/07/01 07:04:00;;;;;;;1.97;0.43;;;28.00;45.40;;;;;;4996574;28;88864;-48
2023/07/01 07:06:28;;;;;;;0.70;0.50;;;28.00;45.30;;;;;;4993525;28;87439;-48
2023/07/01 07:08:58;;;;;;;0.70;0.50;;;28.00;45.30;;;;;;4984618;28;87941;-48
2023/07/01 07:11:26;;;;;;;0.70;0.70;;;28.00;45.30;;;;;;4989701;28;88040;-48
2023/07/01 07:13:54;;;;;;;0.50;0.50;;;28.00;46.00;;;;;;4998994;28;89734;-48
2023/07/01 07:16:22;;;;;;;0.90;0.50;;;28.00;45.40;;;;;;4983112;28;88152;-48
2023/07/01 07:18:52;;;;;;;0.90;0.80;;;28.00;45.40;;;;;;4983982;28;89515;-48
2023/07/01 07:21:20;;;;;;;1.30;0.47;;;28.00;45.40;;;;;;4983788;28;87790;-49
2023/07/01 07:23:49;;;;;;;0.53;0.30;;;28.00;45.40;;;;;;4987569;28;88622;-48
2023/07/01 07:26:18;;;;;;;0.57;0.50;;;28.00;45.40;;;;;;4998892;28;88267;-47
2023/07/01 07:28:47;;;;;;;1.47;0.80;;;28.10;45.50;;;;;;4994473;28;87933;-48
2023/07/01 07:31:15;;;;;;;0.73;0.70;;;28.10;45.50;;;;;;4991520;28;87784;-48
2023/07/01 07:33:43;;;;;;;0.93;0.70;;;28.10;45.50;;;;;;4998095;28;88441;-48
2023/07/01 07:36:11;;;;;;;2.03;1.00;;;28.10;45.60;;;;;;4998458;28;89069;-48
2023/07/01 07:38:39;;;;;;;1.03;0.90;;;28.10;45.60;;;;;;4989393;28;87608;-48
2023/07/01 07:41:07;;;;;;;0.87;0.50;;;28.10;46.30;;;;;;4998110;28;87699;-48
2023/07/01 07:43:37;;;;;;;1.20;0.57;;;28.20;45.70;;;;;;4993985;28;88745;-47
2023/07/01 07:46:05;;;;;;;0.53;0.53;;;28.20;46.40;;;;;;4978823;28;88098;-48
2023/07/01 07:48:33;;;;;;;1.03;0.70;;;28.20;45.70;;;;;;4979751;28;88956;-48
2023/07/01 07:51:02;;;;;;;0.87;0.87;;;28.10;45.70;;;;;;4994916;28;87722;-48
2023/07/01 07:53:30;;;;;;;0.60;0.60;;;28.20;45.80;;;;;;4993201;28;88828;-48
2023/07/01 07:55:58;;;;;;;0.50;0.50;;;28.20;45.80;;;;;;4992947;28;89187;-48
2023/07/01 07:58:26;;;;;;;1.33;0.50;;;28.20;45.90;;;;;;4997726;28;87784;-48
2023/07/01 08:00:55;;;;;;;2.10;0.60;;;28.20;45.90;;;;;;4981143;28;88459;-48
2023/07/01 08:03:24;;;;;;;1.20;0.63;;;28.20;46.00;;;;;;4995938;28;88434;-48
2023/07/01 08:05:52;;;;;;;0.70;0.70;;;28.10;45.90;;;;;;4992999;28;88003;-48
2023/07/01 08:08:20;;;;;;;1.73;0.90;;;28.20;46.00;;;;;;4988941;28;89351;-48
2023/07/01 08:10:48;;;;;;;0.40;0.40;;;28.20;46.00;;;;;;4999521;28;88286;-48
2023/07/01 08:13:17;;;;;;;1.43;0.70;;;28.20;46.00;;;;;;4981839;28;88613;-48
2023/07/01 08:15:45;;;;;;;0.67;0.67;;;28.20;46.10;;;;;;4980980;28;87902;-48
2023/07/01 08:18:16;;;;;;;0.80;0.73;;;28.20;46.10;;;;;;4997270;28;88054;-48
2023/07/01 08:20:44;;;;;;;0.93;0.80;;;28.20;46.10;;;;;;4997870;28;87497;-49
2023/07/01 08:23:14;;;;;;;1.73;1.07;;;28.20;46.10;;;;;;4993318;28;89306;-49
2023/07/01 08:25:42;;;;;;;1.17;0.87;;;28.20;46.10;;;;;;4991943;28;88282;-48
2023/07/01 08:28:11;;;;;;;1.00;1.00;;;28.20;46.20;;;;;;4989358;28;88656;-49
2023/07/01 08:30:39;;;;;;;0.70;0.63;;;28.20;46.20;;;;;;4983720;28;87735;-49
2023/07/01 08:33:07;;;;;;;1.83;1.00;;;28.30;46.30;;;;;;4978307;28;87474;-47
2023/07/01 08:35:36;;;;;;;1.80;1.30;;;28.30;46.40;;;;;;4993740;28;89212;-48
2023/07/01 08:38:05;;;;;;;1.73;1.47;;;28.20;46.30;;;;;;4997511;28;88789;-48
2023/07/01 08:40:33;;;;;;;3.60;0.90;;;28.30;46.40;;;;;;4990808;28;88056;-48
2023/07/01 08:43:02;;;;;;;1.33;1.00;;;28.20;46.40;;;;;;4983363;28;89608;-48
2023/07/01 08:45:32;;;;;;;1.80;0.90;;;28.20;46.40;;;;;;4987149;28;87483;-47
2023/07/01 08:48:01;;;;;;;0.80;0.70;;;28.20;46.40;;;;;;4978508;28;88198;-48
2023/07/01 08:50:32;;;;;;;1.03;0.87;;;28.20;46.40;;;;;;4977502;28;88918;-47
2023/07/01 08:53:04;;;;;;;2.87;1.00;;;28.30;46.60;;;;;;4978253;28;89057;-48
2023/07/01 08:55:32;;;;;;;5.17;0.83;;;28.30;46.60;;;;;;4978069;28;88148;-47
2023/07/01 08:58:01;;;;;;;0.60;0.60;;;28.20;46.60;;;;;;4978301;28;89274;-47
2023/07/01 09:00:29;;;;;;;1.60;1.07;;;28.20;46.70;;;;;;4978249;28;87764;-48
2023/07/01 09:02:58;;;;;;;1.17;0.70;;;28.20;46.80;;;;;;4977560;28;88602;-47
2023/07/01 09:05:26;;;;;;;0.87;0.70;;;28.20;46.90;;;;;;4977903;28;87573;-47
2023/07/01 09:07:54;;;;;;;0.60;0.60;;;28.20;47.00;;;;;;4977366;28;88807;-48
2023/07/01 09:10:24;;;;;;;0.93;0.60;;;28.20;47.10;;;;;;4977998;28;87707;-48
2023/07/01 09:12:52;;;;;;;0.60;0.50;;;28.10;47.10;;;;;;4977836;28;88662;-47
2023/07/01 09:15:20;;;;;;;0.57;0.57;;;28.20;47.20;;;;;;4985433;28;90126;-47
2023/07/01 09:17:49;;;;;;;0.57;0.57;;;28.10;47.20;;;;;;4997385;28;87608;-47
2023/07/01 09:20:17;;;;;;;1.17;0.70;;;28.10;47.30;;;;;;4983205;28;88061;-47
2023/07/01 09:22:45;;;;;;;0.43;0.43;;;28.10;47.40;;;;;;4997067;28;88438;-47
2023/07/01 09:25:28;;;;;;;1.40;0.50;;;28.10;47.40;;;;;;4992630;28;88138;-47
2023/07/01 09:27:56;;;;;;;0.83;0.60;;;28.10;47.50;;;;;;4980633;28;87736;-47
2023/07/01 09:30:25;;;;;;;1.00;0.63;;;28.10;47.50;;;;;;4980694;28;87758;-47
2023/07/01 09:33:08;;;;;;;0.77;0.60;;;28.10;47.60;;;;;;4997430;28;87569;-47
2023/07/01 09:35:41;;;;;;;1.53;0.40;;;28.10;47.70;;;;;;4993899;28;89139;-47
2023/07/01 09:38:09;;;;;;;0.80;0.70;;;28.10;47.70;;;;;;4977284;28;87918;-47
2023/07/01 09:40:39;;;;;;;0.57;0.50;;;28.10;47.80;;;;;;4977295;28;87874;-47
2023/07/01 09:43:08;;;;;;;3.03;0.70;;;28.00;47.80;;;;;;4977551;28;88487;-47
2023/07/01 09:45:36;;;;;;;0.87;0.70;;;28.00;47.80;;;;;;4977156;28;89455;-47
2023/07/01 09:48:11;;;;;;;1.83;0.73;;;28.00;47.80;;;;;;4982147;28;87623;-47
2023/07/01 09:50:40;;;;;;;0.73;0.50;;;28.00;47.90;;;;;;4997364;28;87523;-47
2023/07/01 09:53:19;;;;;;;0.50;0.50;;;28.00;47.90;;;;;;4997021;28;88777;-47
2023/07/01 09:55:49;;;;;;;0.40;0.40;;;28.00;48.00;;;;;;4997347;28;87779;-47
2023/07/01 09:58:17;;;;;;;0.60;0.60;;;28.00;48.00;;;;;;5000209;28;87604;-47
2023/07/01 10:00:46;;;;;;;1.83;0.83;;;28.10;48.70;;;;;;5000331;28;87586;-47
2023/07/01 10:03:14;;;;;;;2.20;0.67;;;28.00;48.00;;;;;;5000034;28;88590;-47
2023/07/01 10:05:44;;;;;;;1.90;1.13;;;28.00;48.00;;;;;;5000001;28;89107;-47
2023/07/01 10:08:12;;;;;;;3.03;0.60;;;28.00;48.00;;;;;;5000175;28;89507;-47
2023/07/01 10:10:40;;;;;;;0.57;0.57;;;28.00;48.70;;;;;;5000866;28;87677;-47
2023/07/01 10:13:10;;;;;;;0.77;0.60;;;28.00;48.10;;;;;;5000810;28;88787;-48
2023/07/01 10:15:39;;;;;;;0.83;0.53;;;28.00;48.10;;;;;;5000553;28;89073;-47
2023/07/01 10:18:21;;;;;;;0.70;0.50;;;28.00;48.20;;;;;;5000439;28;88766;-47
2023/07/01 10:20:49;;;;;;;1.30;0.70;;;28.00;48.20;;;;;;5000014;28;87513;-47
2023/07/01 10:23:17;;;;;;;2.57;0.80;;;28.00;48.20;;;;;;5000409;28;89642;-47
2023/07/01 10:25:45;;;;;;;0.50;0.50;;;28.10;48.30;;;;;;4999748;28;88133;-47
2023/07/01 10:28:15;;;;;;;1.63;0.47;;;28.10;48.40;;;;;;5000063;28;87486;-47
2023/07/01 10:31:12;;;;;;;0.80;0.50;;;28.10;48.40;;;;;;5000022;28;88493;-47
2023/07/01 10:33:57;;;;;;;1.10;0.80;;;28.10;48.40;;;;;;5000257;28;89574;-47
2023/07/01 10:36:25;;;;;;;1.70;0.70;;;28.10;48.40;;;;;;5000087;28;87853;-48
2023/07/01 10:38:54;;;;;;;4.27;0.80;;;28.10;48.40;;;;;;5000082;28;87726;-47
2023/07/01 10:41:53;;;;;;;0.80;0.80;;;28.10;48.50;;;;;;5000519;28;87757;-47
2023/07/01 10:44:26;;;;;;;2.00;0.90;;;28.10;48.50;;;;;;4999680;28;88411;-47
2023/07/01 10:47:13;;;;;;;0.70;0.70;;;28.10;48.50;;;;;;5000059;28;89100;-47
2023/07/01 10:50:04;;;;;;;1.23;0.63;;;28.10;48.60;;;;;;5000048;28;88924;-48
2023/07/01 10:52:37;;;;;;;2.07;0.80;;;28.10;48.60;;;;;;5000189;28;87416;-47
2023/07/01 10:55:23;;;;;;;1.47;0.80;;;28.10;48.60;;;;;;4999370;28;89787;-48
2023/07/01 10:58:21;;;;;;;1.87;0.70;;;28.10;48.70;;;;;;4998743;28;87996;-48
2023/07/01 11:00:51;;;;;;;1.20;0.97;;;28.10;48.80;;;;;;4999839;28;88689;-47
2023/07/01 11:03:57;;;;;;;0.60;0.60;;;28.10;48.70;;;;;;4999581;28;87771;-47
2023/07/01 11:06:25;;;;;;;2.20;0.73;;;28.10;48.70;;;;;;4999972;28;88842;-47
2023/07/01 11:08:54;;;;;;;1.73;0.60;;;28.10;48.70;;;;;;4997930;28;89245;-47
2023/07/01 11:11:23;;;;;;;0.57;0.47;;;28.10;49.40;;;;;;4999324;28;88875;-47
2023/07/01 11:14:03;;;;;;;1.63;0.90;;;28.10;48.70;;;;;;4999442;28;87500;-47
2023/07/01 11:16:33;;;;;;;4.10;0.87;;;28.10;48.80;;;;;;4999619;28;89776;-47
2023/07/01 11:19:02;;;;;;;0.50;0.50;;;28.10;48.80;;;;;;4999232;28;87529;-47
2023/07/01 11:21:31;;;;;;;5.23;1.00;;;28.10;48.80;;;;;;4999166;28;87777;-47
2023/07/01 11:24:00;;;;;;;0.93;0.60;;;28.10;48.80;;;;;;4999072;28;87925;-47
2023/07/01 11:26:29;;;;;;;2.47;0.70;;;28.10;48.80;;;;;;4998846;28;88496;-47
2023/07/01 11:28:57;;;;;;;0.63;0.50;;;28.10;48.80;;;;;;4999476;28;88354;-48
2023/07/01 11:31:30;;;;;;;1.33;0.80;;;28.10;49.40;;;;;;4999226;28;87746;-48
2023/07/01 11:34:00;;;;;;;1.80;1.00;;;28.10;48.70;;;;;;4999474;28;87562;-47
2023/07/01 11:36:35;;;;;;;0.97;0.77;;;28.10;48.70;;;;;;4999007;28;89518;-48
2023/07/01 11:39:08;;;;;;;1.67;0.60;;;28.10;48.80;;;;;;4998786;28;88005;-47
2023/07/01 11:41:37;;;;;;;0.83;0.60;;;28.20;48.80;;;;;;4999034;28;87782;-47
2023/07/01 11:44:06;;;;;;;1.47;0.80;;;28.20;48.70;;;;;;4999235;28;87340;-47
2023/07/01 11:46:35;;;;;;;0.87;0.67;;;28.20;48.70;;;;;;4999310;28;88092;-47
2023/07/01 11:49:17;;;;;;;1.30;0.80;;;28.20;48.70;;;;;;4998411;28;89021;-47
2023/07/01 11:51:47;;;;;;;0.60;0.50;;;28.20;48.70;;;;;;4998717;28;88714;-47
2023/07/01 11:54:16;;;;;;;0.73;0.70;;;28.20;48.70;;;;;;4999263;28;88035;-48
2023/07/01 11:56:44;;;;;;;1.00;0.80;;;28.20;48.60;;;;;;4998826;28;88797;-47
2023/07/01 11:59:29;;;;;;;0.50;0.50;;;28.20;48.70;;;;;;4998578;28;88142;-47
2023/07/01 12:01:57;;;;;;;0.97;0.90;;;28.20;48.70;;;;;;4998700;28;87911;-47
2023/07/01 12:04:27;;;;;;;3.30;0.70;;;28.20;48.70;;;;;;4999012;28;87710;-47
2023/07/01 12:07:09;;;;;;;1.90;0.70;;;28.20;48.70;;;;;;4998782;28;89898;-47
2023/07/01 12:09:37;;;;;;;4.10;0.67;;;28.10;48.60;;;;;;4998056;28;88085;-47
2023/07/01 12:12:06;;;;;;;1.23;0.70;;;28.10;48.60;;;;;;4998415;28;88912;-47
2023/07/01 12:14:35;;;;;;;0.50;0.50;;;28.10;49.30;;;;;;4998041;28;87885;-48
2023/07/01 12:17:03;;;;;;;0.40;0.40;;;28.10;48.60;;;;;;4998496;28;89843;-47
2023/07/01 12:19:33;;;;;;;0.50;0.50;;;28.10;48.60;;;;;;4998117;28;89185;-47
2023/07/01 12:22:01;;;;;;;0.53;0.53;;;28.10;48.60;;;;;;4998411;28;88487;-47
2023/07/01 12:24:31;;;;;;;0.57;0.50;;;28.20;48.70;;;;;;4998017;28;87619;-47
2023/07/01 12:27:00;;;;;;;1.23;0.77;;;28.20;48.70;;;;;;4997955;28;88544;-47
2023/07/01 12:29:28;;;;;;;0.40;0.30;;;28.20;48.70;;;;;;4997995;28;88193;-47
2023/07/01 12:31:57;;;;;;;1.60;0.60;;;28.10;48.50;;;;;;4998586;28;88055;-48
2023/07/01 12:34:26;;;;;;;2.17;0.70;;;28.10;48.50;;;;;;4998712;28;87744;-47
2023/07/01 12:36:55;;;;;;;1.87;0.70;;;28.20;48.60;;;;;;4998217;28;88614;-47
2023/07/01 12:39:23;;;;;;;0.70;0.50;;;28.20;48.50;;;;;;4996999;28;90105;-48
2023/07/01 12:41:53;;;;;;;1.27;0.70;;;28.20;48.50;;;;;;4997899;28;88083;-47
2023/07/01 12:44:21;;;;;;;2.97;0.70;;;28.20;48.50;;;;;;4998512;28;87677;-47
2023/07/01 12:46:49;;;;;;;0.90;0.90;;;28.20;48.40;;;;;;4998144;28;90144;-48
2023/07/01 12:49:17;;;;;;;0.87;0.80;;;28.20;48.40;;;;;;4997967;28;88096;-47
2023/07/01 12:51:45;;;;;;;1.30;1.00;;;28.20;48.40;;;;;;4997715;28;88897;-47
2023/07/01 12:54:15;;;;;;;1.00;0.83;;;28.20;48.40;;;;;;4998036;28;88401;-47
2023/07/01 12:56:46;;;;;;;1.00;0.90;;;28.20;48.40;;;;;;4998160;28;88465;-47
2023/07/01 12:59:14;;;;;;;1.27;0.93;;;28.20;48.40;;;;;;4997696;28;89061;-47
2023/07/01 13:01:45;;;;;;;1.00;0.90;;;28.20;48.30;;;;;;4997682;28;87507;-47